createdAt,value
2018-09-25T00:03:20.559Z,6.10
2018-09-25T00:07:30.119Z,6.20
2018-09-25T00:11:39.304Z,6.20
2018-09-25T00:15:48.497Z,6.30
2018-09-25T00:19:57.848Z,6.40
2018-09-25T00:24:07.481Z,6.30
2018-09-25T00:28:16.720Z,6.10
2018-09-25T00:32:26.017Z,5.90
2018-09-25T00:36:35.249Z,5.80
2018-09-25T00:40:44.557Z,5.80
2018-09-25T00:44:53.886Z,5.80
2018-09-25T00:49:03.178Z,5.80
2018-09-25T00:53:12.728Z,5.80
2018-09-25T00:57:22.039Z,5.90
2018-09-25T01:01:31.833Z,6.00
2018-09-25T01:05:41.236Z,6.20
2018-09-25T01:09:50.594Z,6.30
2018-09-25T01:14:00.077Z,6.30
2018-09-25T01:18:09.269Z,6.30
2018-09-25T01:22:18.602Z,6.40
2018-09-25T01:26:28.253Z,6.40
2018-09-25T01:30:37.760Z,6.60
2018-09-25T01:34:47.349Z,6.50
2018-09-25T01:38:56.587Z,6.50
2018-09-25T01:43:05.998Z,6.50
2018-09-25T01:47:15.332Z,6.50
2018-09-25T01:51:24.666Z,6.50
2018-09-25T01:55:34.469Z,6.30
2018-09-25T01:59:43.834Z,6.20
2018-09-25T02:03:55.380Z,6.00
2018-09-25T02:08:04.907Z,6.00
2018-09-25T02:12:14.166Z,5.80
2018-09-25T02:16:23.864Z,5.80
2018-09-25T02:20:33.088Z,5.70
2018-09-25T02:24:42.438Z,5.50
2018-09-25T02:28:52.089Z,5.30
2018-09-25T02:33:01.640Z,5.20
2018-09-25T02:37:11.197Z,5.20
2018-09-25T02:41:20.742Z,5.30
2018-09-25T02:45:29.986Z,5.40
2018-09-25T02:49:39.530Z,5.50
2018-09-25T02:53:48.794Z,5.70
2018-09-25T02:57:58.317Z,5.80
2018-09-25T03:02:07.492Z,6.00
2018-09-25T03:06:16.817Z,6.10
2018-09-25T03:10:26.355Z,6.10
2018-09-25T03:14:35.533Z,6.20
2018-09-25T03:18:45.133Z,6.30
2018-09-25T03:22:54.380Z,6.30
2018-09-25T03:27:03.733Z,6.40
2018-09-25T03:31:13.085Z,6.40
2018-09-25T03:35:22.977Z,6.40
2018-09-25T03:39:32.528Z,6.40
2018-09-25T03:43:42.182Z,6.30
2018-09-25T03:47:51.693Z,6.10
2018-09-25T03:52:01.884Z,5.90
2018-09-25T03:56:11.182Z,5.80
2018-09-25T04:00:20.735Z,5.70
2018-09-25T04:04:30.424Z,5.80
2018-09-25T04:08:40.032Z,5.80
2018-09-25T04:12:49.270Z,5.90
2018-09-25T04:16:59.120Z,5.90
2018-09-25T04:21:08.397Z,6.00
2018-09-25T04:25:17.930Z,6.10
2018-09-25T04:29:27.140Z,6.20
2018-09-25T04:33:36.800Z,6.20
2018-09-25T04:37:46.282Z,6.30
2018-09-25T04:41:55.744Z,6.30
2018-09-25T04:46:05.025Z,6.30
2018-09-25T04:50:14.449Z,6.40
2018-09-25T04:54:24.797Z,6.50
2018-09-25T04:58:34.205Z,6.50
2018-09-25T05:02:43.709Z,6.60
2018-09-25T05:06:53.153Z,6.70
2018-09-25T05:11:02.560Z,6.60
2018-09-25T05:15:14.020Z,6.60
2018-09-25T05:19:23.597Z,6.70
2018-09-25T05:23:33.141Z,6.70
2018-09-25T05:27:42.782Z,7.00
2018-09-25T05:31:51.980Z,7.10
2018-09-25T05:36:01.459Z,7.20
2018-09-25T05:40:10.861Z,7.30
2018-09-25T05:44:20.348Z,7.40
2018-09-25T05:48:29.799Z,7.50
2018-09-25T05:52:38.986Z,7.50
2018-09-25T05:56:48.436Z,7.60
2018-09-25T06:00:57.719Z,7.60
2018-09-25T06:05:07.286Z,7.70
2018-09-25T06:09:16.765Z,7.80
2018-09-25T06:13:26.235Z,7.90
2018-09-25T06:17:35.737Z,8.00
2018-09-25T06:21:45.286Z,8.20
2018-09-25T06:25:54.681Z,8.20
2018-09-25T06:30:04.378Z,8.30
2018-09-25T06:34:14.041Z,8.40
2018-09-25T06:38:23.537Z,8.60
2018-09-25T06:42:32.991Z,8.70
2018-09-25T06:46:42.205Z,8.80
2018-09-25T06:50:51.490Z,9.00
2018-09-25T06:55:00.830Z,9.30
2018-09-25T06:59:11.090Z,9.40
2018-09-25T07:03:21.701Z,9.50
2018-09-25T07:07:31.308Z,9.70
2018-09-25T07:11:41.745Z,10.10
2018-09-25T07:15:51.197Z,10.20
2018-09-25T07:20:00.744Z,10.60
2018-09-25T07:24:10.404Z,10.90
2018-09-25T07:28:19.819Z,11.10
2018-09-25T07:32:29.370Z,11.20
2018-09-25T07:36:38.860Z,11.30
2018-09-25T07:40:48.156Z,11.50
2018-09-25T07:44:57.542Z,11.50
2018-09-25T07:49:07.063Z,12.00
2018-09-25T07:53:16.328Z,12.40
2018-09-25T07:57:25.793Z,12.30
2018-09-25T08:01:35.083Z,12.40
2018-09-25T08:05:44.429Z,12.60
2018-09-25T08:09:53.883Z,12.70
2018-09-25T08:14:03.174Z,12.60
2018-09-25T08:18:12.631Z,12.80
2018-09-25T08:22:21.819Z,12.40
2018-09-25T08:26:31.320Z,13.60
2018-09-25T08:30:40.660Z,14.00
2018-09-25T08:34:50.237Z,13.40
2018-09-25T08:38:59.764Z,13.40
2018-09-25T08:43:09.249Z,14.10
2018-09-25T08:47:18.671Z,14.70
2018-09-25T08:51:28.228Z,13.80
2018-09-25T08:55:37.614Z,13.40
2018-09-25T08:59:47.239Z,14.10
2018-09-25T09:03:56.614Z,14.20
2018-09-25T09:08:06.056Z,14.60
2018-09-25T09:12:15.300Z,14.30
2018-09-25T09:16:24.920Z,13.70
2018-09-25T09:20:35.657Z,13.40
2018-09-25T09:24:45.481Z,13.10
2018-09-25T09:28:54.612Z,13.50
2018-09-25T09:33:05.162Z,13.60
2018-09-25T09:37:14.559Z,14.50
2018-09-25T09:41:24.268Z,15.30
2018-09-25T09:45:33.515Z,15.30
2018-09-25T09:49:43.024Z,15.90
2018-09-25T09:53:52.545Z,16.70
2018-09-25T09:58:01.808Z,17.60
2018-09-25T10:02:11.410Z,16.70
2018-09-25T10:06:20.805Z,16.60
2018-09-25T10:10:30.323Z,16.90
2018-09-25T10:14:39.749Z,17.90
2018-09-25T10:18:49.372Z,17.10
2018-09-25T10:22:58.751Z,15.70
2018-09-25T10:27:08.184Z,15.60
2018-09-25T10:31:17.436Z,16.40
2018-09-25T10:35:27.001Z,16.40
2018-09-25T10:39:38.284Z,15.30
2018-09-25T10:43:47.814Z,15.10
2018-09-25T10:47:57.301Z,16.30
2018-09-25T10:52:06.686Z,17.40
2018-09-25T10:56:16.312Z,18.70
2018-09-25T11:00:25.745Z,20.10
2018-09-25T11:04:35.303Z,19.90
2018-09-25T11:08:44.584Z,21.20
2018-09-25T11:12:53.966Z,22.70
2018-09-25T11:17:03.432Z,21.40
2018-09-25T11:21:12.985Z,23.50
2018-09-25T11:25:22.451Z,23.70
2018-09-25T11:29:31.982Z,24.30
2018-09-25T11:33:41.241Z,23.60
2018-09-25T11:37:51.091Z,23.40
2018-09-25T11:42:00.502Z,24.40
2018-09-25T11:46:09.983Z,24.90
2018-09-25T11:50:19.138Z,22.90
2018-09-25T11:54:28.716Z,21.20
2018-09-25T11:58:38.064Z,20.60
2018-09-25T12:02:47.476Z,19.10
2018-09-25T12:06:56.693Z,19.10
2018-09-25T12:11:06.263Z,19.50
2018-09-25T12:15:15.820Z,21.40
2018-09-25T12:19:25.265Z,21.70
2018-09-25T12:23:34.681Z,20.40
2018-09-25T12:27:44.164Z,19.00
2018-09-25T12:31:53.559Z,17.80
2018-09-25T12:36:03.016Z,16.70
2018-09-25T12:40:12.465Z,15.90
2018-09-25T12:44:21.747Z,15.90
2018-09-25T12:48:31.314Z,15.00
2018-09-25T12:52:40.713Z,15.10
2018-09-25T12:56:49.878Z,14.80
2018-09-25T13:00:59.463Z,15.00
2018-09-25T13:05:08.748Z,15.80
2018-09-25T13:09:18.269Z,17.80
2018-09-25T13:13:27.547Z,18.90
2018-09-25T13:17:37.090Z,17.90
2018-09-25T13:21:46.901Z,17.60
2018-09-25T13:25:56.388Z,16.60
2018-09-25T13:30:05.849Z,17.20
2018-09-25T13:34:15.058Z,21.00
2018-09-25T13:38:24.593Z,20.40
2018-09-25T13:42:34.201Z,19.90
2018-09-25T13:46:43.468Z,18.50
2018-09-25T13:50:53.042Z,17.40
2018-09-25T13:55:02.254Z,19.60
2018-09-25T13:59:12.253Z,21.80
2018-09-25T14:03:21.788Z,22.90
2018-09-25T14:07:31.352Z,23.40
2018-09-25T14:13:05.331Z,23.60
2018-09-25T14:17:14.775Z,24.10
2018-09-25T14:21:24.235Z,23.80
2018-09-25T14:25:33.528Z,24.10
2018-09-25T14:29:43.401Z,24.10
2018-09-25T14:33:52.678Z,21.30
2018-09-25T14:38:02.024Z,19.30
2018-09-25T14:42:11.410Z,17.80
2018-09-25T14:46:20.873Z,16.30
2018-09-25T14:50:30.048Z,15.70
2018-09-25T14:54:40.655Z,15.20
2018-09-25T14:58:50.240Z,14.50
2018-09-25T15:02:59.585Z,14.10
2018-09-25T15:07:09.459Z,13.90
2018-09-25T15:11:18.866Z,13.60
2018-09-25T15:15:28.087Z,13.40
2018-09-25T15:19:37.573Z,13.40
2018-09-25T15:23:46.984Z,13.20
2018-09-25T15:27:56.184Z,13.00
2018-09-25T15:32:05.912Z,12.60
2018-09-25T15:36:15.303Z,12.70
2018-09-25T15:40:24.890Z,12.60
2018-09-25T15:44:34.334Z,12.40
2018-09-25T15:48:44.857Z,12.30
2018-09-25T15:52:54.415Z,12.00
2018-09-25T15:57:03.696Z,11.90
2018-09-25T16:01:14.078Z,11.80
2018-09-25T16:05:23.398Z,11.70
2018-09-25T16:09:32.816Z,11.60
2018-09-25T16:13:42.165Z,11.50
2018-09-25T16:17:52.655Z,11.30
2018-09-25T16:22:01.935Z,11.20
2018-09-25T16:26:11.212Z,11.00
2018-09-25T16:30:20.680Z,10.80
2018-09-25T16:34:30.326Z,10.70
2018-09-25T16:38:39.798Z,10.60
2018-09-25T16:42:49.339Z,10.50
2018-09-25T16:46:58.675Z,10.20
2018-09-25T16:51:07.948Z,10.10
2018-09-25T16:55:18.607Z,9.90
2018-09-25T16:59:28.957Z,9.70
2018-09-25T17:03:38.213Z,9.50
2018-09-25T17:07:47.663Z,9.10
2018-09-25T17:11:57.119Z,8.40
2018-09-25T17:16:06.385Z,8.10
2018-09-25T17:20:16.972Z,7.90
2018-09-25T17:24:26.478Z,7.60
2018-09-25T17:28:35.871Z,7.50
2018-09-25T17:32:45.381Z,7.30
2018-09-25T17:36:54.613Z,7.10
2018-09-25T17:41:04.089Z,7.00
2018-09-25T17:45:13.563Z,6.80
2018-09-25T17:49:22.916Z,6.70
2018-09-25T17:53:32.320Z,6.50
2018-09-25T17:57:41.537Z,6.40
2018-09-25T18:01:51.094Z,6.30
2018-09-25T18:06:00.431Z,6.20
2018-09-25T18:10:09.854Z,6.10
2018-09-25T18:14:19.104Z,6.10
2018-09-25T18:18:28.377Z,5.90
2018-09-25T18:22:37.730Z,5.80
2018-09-25T18:26:47.236Z,5.70
2018-09-25T18:30:56.486Z,5.70
2018-09-25T18:35:06.013Z,5.60
2018-09-25T18:39:15.337Z,5.50
2018-09-25T18:43:24.602Z,5.40
2018-09-25T18:47:33.954Z,5.40
2018-09-25T18:51:43.380Z,5.40
2018-09-25T18:55:53.819Z,5.30
2018-09-25T19:00:03.409Z,5.20
2018-09-25T19:04:12.892Z,5.10
2018-09-25T19:08:23.265Z,5.10
2018-09-25T19:12:32.777Z,5.00
2018-09-25T19:16:42.500Z,5.00
2018-09-25T19:20:52.582Z,5.00
2018-09-25T19:25:01.796Z,5.00
2018-09-25T19:29:12.047Z,5.00
2018-09-25T19:33:21.553Z,5.00
2018-09-25T19:37:30.733Z,5.00
2018-09-25T19:41:40.046Z,5.00
2018-09-25T19:45:50.299Z,5.00
2018-09-25T19:49:59.695Z,5.00
2018-09-25T19:54:09.211Z,5.00
2018-09-25T19:58:18.869Z,5.00
2018-09-25T20:02:36.145Z,4.90
2018-09-25T20:06:45.387Z,4.90
2018-09-25T20:11:01.892Z,4.90
2018-09-25T20:15:11.536Z,4.80
2018-09-25T20:19:21.896Z,4.60
2018-09-25T20:23:31.162Z,4.50
2018-09-25T20:27:40.970Z,4.50
2018-09-25T20:31:50.675Z,4.40
2018-09-25T20:36:00.079Z,4.30
2018-09-25T20:40:09.489Z,4.20
2018-09-25T20:44:18.913Z,4.10
2018-09-25T20:48:28.327Z,4.10
2018-09-25T20:52:37.561Z,4.00
2018-09-25T20:56:46.834Z,3.90
2018-09-25T21:00:56.187Z,3.80
2018-09-25T21:05:05.726Z,3.70
2018-09-25T21:09:15.421Z,3.70
2018-09-25T21:13:24.807Z,3.60
2018-09-25T21:17:33.997Z,3.50
2018-09-25T21:21:43.513Z,3.40
2018-09-25T21:25:53.171Z,3.30
2018-09-25T21:30:02.390Z,3.30
2018-09-25T21:34:15.912Z,3.30
2018-09-25T21:38:27.974Z,3.40
2018-09-25T21:42:39.771Z,3.30
2018-09-25T21:46:50.784Z,3.20
2018-09-25T21:51:00.435Z,3.20
2018-09-25T21:55:10.053Z,3.10
2018-09-25T21:59:19.618Z,3.10
2018-09-25T22:03:28.810Z,3.00
2018-09-25T22:07:38.341Z,2.90
2018-09-25T22:11:47.846Z,2.80
2018-09-25T22:15:57.206Z,2.80
2018-09-25T22:20:06.446Z,2.70
2018-09-25T22:24:16.377Z,2.60
2018-09-25T22:28:25.818Z,2.60
2018-09-25T22:32:35.204Z,2.60
2018-09-25T22:36:44.453Z,2.50
2018-09-25T22:40:54.007Z,2.40
2018-09-25T22:45:03.448Z,2.50
2018-09-25T22:49:12.924Z,2.50
2018-09-25T22:53:22.413Z,2.50
2018-09-25T22:57:31.813Z,2.40
2018-09-25T23:01:40.955Z,2.40
2018-09-25T23:05:50.281Z,2.40
2018-09-25T23:09:59.650Z,2.30
2018-09-25T23:14:09.451Z,2.30
2018-09-25T23:18:18.690Z,2.30
2018-09-25T23:22:34.952Z,2.20
2018-09-25T23:26:44.595Z,2.20
2018-09-25T23:30:54.114Z,2.20
2018-09-25T23:35:03.302Z,2.20
2018-09-25T23:39:14.537Z,2.10
2018-09-25T23:43:22.875Z,2.10
2018-09-25T23:47:47.235Z,2.00
2018-09-25T23:51:56.198Z,2.10
2018-09-25T23:56:05.255Z,2.00
